sensor_id;sensor_type;location;lat;lon;timestamp;P1;durP1;ratioP1;P2;durP2;ratioP2
79122;SDS011;68526;44.600;26.032;2023-08-17T00:00:00;8.43;;;6.95;;
79122;SDS011;68526;44.600;26.032;2023-08-17T00:00:18;9.33;;;7.20;;
79122;SDS011;68526;44.600;26.032;2023-08-17T00:00:34;8.57;;;6.63;;
79122;SDS011;68526;44.600;26.032;2023-08-17T00:00:51;7.68;;;6.22;;
79122;SDS011;68526;44.600;26.032;2023-08-17T00:01:07;7.88;;;6.53;;
79122;SDS011;68526;44.600;26.032;2023-08-17T00:01:23;8.15;;;6.55;;
79122;SDS011;68526;44.600;26.032;2023-08-17T00:01:39;8.40;;;6.43;;
79122;SDS011;68526;44.600;26.032;2023-08-17T00:01:54;7.57;;;6.28;;
79122;SDS011;68526;44.600;26.032;2023-08-17T00:02:10;7.00;;;6.23;;
79122;SDS011;68526;44.600;26.032;2023-08-17T00:02:26;7.72;;;6.60;;
79122;SDS011;68526;44.600;26.032;2023-08-17T00:02:43;7.68;;;6.45;;
79122;SDS011;68526;44.600;26.032;2023-08-17T00:02:59;8.05;;;6.13;;
79122;SDS011;68526;44.600;26.032;2023-08-17T00:03:15;8.38;;;6.45;;
79122;SDS011;68526;44.600;26.032;2023-08-17T00:03:30;8.57;;;6.60;;
79122;SDS011;68526;44.600;26.032;2023-08-17T00:03:46;7.82;;;6.10;;
79122;SDS011;68526;44.600;26.032;2023-08-17T00:04:02;7.63;;;6.38;;
79122;SDS011;68526;44.600;26.032;2023-08-17T00:04:19;7.18;;;6.40;;
79122;SDS011;68526;44.600;26.032;2023-08-17T00:04:35;7.63;;;5.93;;
79122;SDS011;68526;44.600;26.032;2023-08-17T00:04:51;8.38;;;6.28;;
79122;SDS011;68526;44.600;26.032;2023-08-17T00:05:07;7.33;;;6.20;;
79122;SDS011;68526;44.600;26.032;2023-08-17T00:05:23;7.85;;;6.18;;
79122;SDS011;68526;44.600;26.032;2023-08-17T00:05:39;8.07;;;6.30;;
79122;SDS011;68526;44.600;26.032;2023-08-17T00:05:55;8.55;;;6.40;;
79122;SDS011;68526;44.600;26.032;2023-08-17T00:06:12;8.20;;;6.78;;
79122;SDS011;68526;44.600;26.032;2023-08-17T00:06:28;7.55;;;6.75;;
79122;SDS011;68526;44.600;26.032;2023-08-17T00:06:43;7.30;;;6.40;;
79122;SDS011;68526;44.600;26.032;2023-08-17T00:06:59;7.25;;;6.55;;
79122;SDS011;68526;44.600;26.032;2023-08-17T00:07:15;7.88;;;6.95;;
79122;SDS011;68526;44.600;26.032;2023-08-17T00:07:31;9.23;;;6.60;;
79122;SDS011;68526;44.600;26.032;2023-08-17T00:07:47;8.48;;;6.85;;
79122;SDS011;68526;44.600;26.032;2023-08-17T00:08:03;7.55;;;6.78;;
79122;SDS011;68526;44.600;26.032;2023-08-17T00:08:20;7.32;;;6.55;;
79122;SDS011;68526;44.600;26.032;2023-08-17T00:08:35;8.20;;;6.82;;
79122;SDS011;68526;44.600;26.032;2023-08-17T00:08:51;8.20;;;7.00;;
79122;SDS011;68526;44.600;26.032;2023-08-17T00:09:07;7.90;;;6.93;;
79122;SDS011;68526;44.600;26.032;2023-08-17T00:09:24;7.63;;;6.82;;
79122;SDS011;68526;44.600;26.032;2023-08-17T00:09:40;8.00;;;7.10;;
79122;SDS011;68526;44.600;26.032;2023-08-17T00:09:55;8.00;;;6.82;;
79122;SDS011;68526;44.600;26.032;2023-08-17T00:10:11;7.90;;;6.40;;
79122;SDS011;68526;44.600;26.032;2023-08-17T00:10:27;9.27;;;6.72;;
79122;SDS011;68526;44.600;26.032;2023-08-17T00:10:43;8.45;;;6.93;;
79122;SDS011;68526;44.600;26.032;2023-08-17T00:10:59;7.13;;;6.22;;
79122;SDS011;68526;44.600;26.032;2023-08-17T00:11:17;8.43;;;6.20;;
79122;SDS011;68526;44.600;26.032;2023-08-17T00:11:33;9.13;;;6.88;;
79122;SDS011;68526;44.600;26.032;2023-08-17T00:11:49;9.55;;;7.38;;
79122;SDS011;68526;44.600;26.032;2023-08-17T00:12:05;9.87;;;7.73;;
79122;SDS011;68526;44.600;26.032;2023-08-17T00:12:21;10.00;;;7.45;;
79122;SDS011;68526;44.600;26.032;2023-08-17T00:12:36;8.05;;;6.93;;
79122;SDS011;68526;44.600;26.032;2023-08-17T00:12:52;7.70;;;6.80;;
79122;SDS011;68526;44.600;26.032;2023-08-17T00:13:09;7.50;;;6.57;;
79122;SDS011;68526;44.600;26.032;2023-08-17T00:13:25;7.25;;;6.50;;
79122;SDS011;68526;44.600;26.032;2023-08-17T00:13:41;7.93;;;6.95;;
79122;SDS011;68526;44.600;26.032;2023-08-17T00:13:56;7.85;;;7.00;;
79122;SDS011;68526;44.600;26.032;2023-08-17T00:14:12;7.10;;;6.40;;
79122;SDS011;68526;44.600;26.032;2023-08-17T00:14:28;8.27;;;6.72;;
79122;SDS011;68526;44.600;26.032;2023-08-17T00:14:44;10.60;;;7.35;;
79122;SDS011;68526;44.600;26.032;2023-08-17T00:14:59;11.40;;;6.67;;
79122;SDS011;68526;44.600;26.032;2023-08-17T00:15:16;9.63;;;6.35;;
79122;SDS011;68526;44.600;26.032;2023-08-17T00:15:32;7.45;;;6.60;;
79122;SDS011;68526;44.600;26.032;2023-08-17T00:15:48;9.85;;;7.03;;
79122;SDS011;68526;44.600;26.032;2023-08-17T00:16:04;10.23;;;7.28;;
79122;SDS011;68526;44.600;26.032;2023-08-17T00:16:20;7.82;;;6.85;;
79122;SDS011;68526;44.600;26.032;2023-08-17T00:16:35;8.15;;;6.85;;
79122;SDS011;68526;44.600;26.032;2023-08-17T00:16:51;8.32;;;7.18;;
79122;SDS011;68526;44.600;26.032;2023-08-17T00:17:08;7.88;;;6.50;;
79122;SDS011;68526;44.600;26.032;2023-08-17T00:17:24;8.20;;;6.17;;
79122;SDS011;68526;44.600;26.032;2023-08-17T00:17:40;8.07;;;6.70;;
79122;SDS011;68526;44.600;26.032;2023-08-17T00:17:55;7.53;;;6.75;;
79122;SDS011;68526;44.600;26.032;2023-08-17T00:18:11;8.07;;;6.95;;
79122;SDS011;68526;44.600;26.032;2023-08-17T00:18:27;9.57;;;7.10;;
79122;SDS011;68526;44.600;26.032;2023-08-17T00:18:43;9.60;;;7.18;;
79122;SDS011;68526;44.600;26.032;2023-08-17T00:18:59;7.82;;;6.93;;
79122;SDS011;68526;44.600;26.032;2023-08-17T00:19:15;7.70;;;6.90;;
79122;SDS011;68526;44.600;26.032;2023-08-17T00:19:31;8.43;;;7.10;;
79122;SDS011;68526;44.600;26.032;2023-08-17T00:19:47;8.82;;;7.57;;
79122;SDS011;68526;44.600;26.032;2023-08-17T00:20:03;8.82;;;7.75;;
79122;SDS011;68526;44.600;26.032;2023-08-17T00:20:20;8.25;;;7.10;;
79122;SDS011;68526;44.600;26.032;2023-08-17T00:20:36;7.40;;;6.50;;
79122;SDS011;68526;44.600;26.032;2023-08-17T00:20:51;8.18;;;6.35;;
79122;SDS011;68526;44.600;26.032;2023-08-17T00:21:08;9.02;;;6.85;;
79122;SDS011;68526;44.600;26.032;2023-08-17T00:21:24;8.20;;;7.03;;
79122;SDS011;68526;44.600;26.032;2023-08-17T00:21:40;7.43;;;6.60;;
79122;SDS011;68526;44.600;26.032;2023-08-17T00:21:56;7.55;;;6.75;;
79122;SDS011;68526;44.600;26.032;2023-08-17T00:22:11;7.82;;;6.90;;
79122;SDS011;68526;44.600;26.032;2023-08-17T00:22:27;8.10;;;6.80;;
79122;SDS011;68526;44.600;26.032;2023-08-17T00:22:44;8.45;;;6.70;;
79122;SDS011;68526;44.600;26.032;2023-08-17T00:23:00;8.20;;;6.70;;
79122;SDS011;68526;44.600;26.032;2023-08-17T00:23:16;8.63;;;7.13;;
79122;SDS011;68526;44.600;26.032;2023-08-17T00:23:31;10.57;;;7.60;;
79122;SDS011;68526;44.600;26.032;2023-08-17T00:23:47;10.60;;;7.65;;
79122;SDS011;68526;44.600;26.032;2023-08-17T00:24:03;8.98;;;7.00;;
79122;SDS011;68526;44.600;26.032;2023-08-17T00:24:21;8.30;;;7.00;;
79122;SDS011;68526;44.600;26.032;2023-08-17T00:24:36;9.23;;;7.38;;
79122;SDS011;68526;44.600;26.032;2023-08-17T00:24:52;9.20;;;7.45;;
79122;SDS011;68526;44.600;26.032;2023-08-17T00:25:08;9.70;;;7.37;;
79122;SDS011;68526;44.600;26.032;2023-08-17T00:25:24;10.82;;;7.18;;
79122;SDS011;68526;44.600;26.032;2023-08-17T00:25:40;9.88;;;7.20;;
79122;SDS011;68526;44.600;26.032;2023-08-17T00:25:55;9.02;;;7.13;;
79122;SDS011;68526;44.600;26.032;2023-08-17T00:26:11;8.17;;;6.80;;
79122;SDS011;68526;44.600;26.032;2023-08-17T00:26:30;7.28;;;6.55;;
79122;SDS011;68526;44.600;26.032;2023-08-17T00:26:46;7.70;;;6.50;;
79122;SDS011;68526;44.600;26.032;2023-08-17T00:27:02;7.90;;;6.80;;
79122;SDS011;68526;44.600;26.032;2023-08-17T00:27:18;7.78;;;6.93;;
79122;SDS011;68526;44.600;26.032;2023-08-17T00:27:34;8.88;;;7.38;;
79122;SDS011;68526;44.600;26.032;2023-08-17T00:27:50;9.15;;;7.45;;
79122;SDS011;68526;44.600;26.032;2023-08-17T00:28:06;9.13;;;7.33;;
79122;SDS011;68526;44.600;26.032;2023-08-17T00:28:21;8.23;;;6.93;;
79122;SDS011;68526;44.600;26.032;2023-08-17T00:28:38;7.95;;;7.15;;
79122;SDS011;68526;44.600;26.032;2023-08-17T00:28:54;8.88;;;7.40;;
79122;SDS011;68526;44.600;26.032;2023-08-17T00:29:10;8.67;;;7.00;;
79122;SDS011;68526;44.600;26.032;2023-08-17T00:29:26;7.85;;;7.05;;
79122;SDS011;68526;44.600;26.032;2023-08-17T00:29:41;8.23;;;7.20;;
79122;SDS011;68526;44.600;26.032;2023-08-17T00:29:57;8.55;;;7.10;;
79122;SDS011;68526;44.600;26.032;2023-08-17T00:30:13;8.73;;;7.25;;
79122;SDS011;68526;44.600;26.032;2023-08-17T00:30:30;7.85;;;6.95;;
79122;SDS011;68526;44.600;26.032;2023-08-17T00:30:46;7.13;;;6.43;;
79122;SDS011;68526;44.600;26.032;2023-08-17T00:31:01;7.33;;;6.50;;
79122;SDS011;68526;44.600;26.032;2023-08-17T00:31:17;7.82;;;6.57;;
79122;SDS011;68526;44.600;26.032;2023-08-17T00:31:33;8.20;;;6.60;;
79122;SDS011;68526;44.600;26.032;2023-08-17T00:31:49;8.02;;;6.47;;
79122;SDS011;68526;44.600;26.032;2023-08-17T00:32:05;8.43;;;6.28;;
79122;SDS011;68526;44.600;26.032;2023-08-17T00:32:22;10.30;;;7.05;;
79122;SDS011;68526;44.600;26.032;2023-08-17T00:32:38;10.40;;;7.40;;
79122;SDS011;68526;44.600;26.032;2023-08-17T00:32:53;10.63;;;7.55;;
79122;SDS011;68526;44.600;26.032;2023-08-17T00:33:09;10.20;;;7.38;;
79122;SDS011;68526;44.600;26.032;2023-08-17T00:33:25;8.40;;;6.90;;
79122;SDS011;68526;44.600;26.032;2023-08-17T00:33:41;8.48;;;7.53;;
79122;SDS011;68526;44.600;26.032;2023-08-17T00:33:57;9.27;;;7.43;;
79122;SDS011;68526;44.600;26.032;2023-08-17T00:34:14;8.80;;;6.60;;
79122;SDS011;68526;44.600;26.032;2023-08-17T00:34:29;8.57;;;6.97;;
79122;SDS011;68526;44.600;26.032;2023-08-17T00:34:45;8.80;;;7.23;;
79122;SDS011;68526;44.600;26.032;2023-08-17T00:35:01;8.40;;;7.22;;
79122;SDS011;68526;44.600;26.032;2023-08-17T00:35:17;8.20;;;7.35;;
79122;SDS011;68526;44.600;26.032;2023-08-17T00:35:33;8.20;;;7.28;;
79122;SDS011;68526;44.600;26.032;2023-08-17T00:35:49;9.73;;;7.70;;
79122;SDS011;68526;44.600;26.032;2023-08-17T00:36:06;10.05;;;7.72;;
79122;SDS011;68526;44.600;26.032;2023-08-17T00:36:22;8.00;;;7.20;;
79122;SDS011;68526;44.600;26.032;2023-08-17T00:36:38;8.45;;;7.10;;
79122;SDS011;68526;44.600;26.032;2023-08-17T00:36:53;8.57;;;7.10;;
79122;SDS011;68526;44.600;26.032;2023-08-17T00:37:09;8.70;;;7.80;;
79122;SDS011;68526;44.600;26.032;2023-08-17T00:37:25;8.70;;;7.70;;
79122;SDS011;68526;44.600;26.032;2023-08-17T00:37:41;8.23;;;7.10;;
79122;SDS011;68526;44.600;26.032;2023-08-17T00:37:57;8.70;;;7.00;;
79122;SDS011;68526;44.600;26.032;2023-08-17T00:38:13;9.13;;;6.80;;
79122;SDS011;68526;44.600;26.032;2023-08-17T00:38:29;9.50;;;7.10;;
79122;SDS011;68526;44.600;26.032;2023-08-17T00:38:45;8.93;;;7.05;;
79122;SDS011;68526;44.600;26.032;2023-08-17T00:39:01;7.32;;;6.57;;
79122;SDS011;68526;44.600;26.032;2023-08-17T00:39:17;7.95;;;6.97;;
79122;SDS011;68526;44.600;26.032;2023-08-17T00:39:33;9.57;;;7.45;;
79122;SDS011;68526;44.600;26.032;2023-08-17T00:39:50;9.25;;;7.22;;
79122;SDS011;68526;44.600;26.032;2023-08-17T00:40:06;8.43;;;6.80;;
79122;SDS011;68526;44.600;26.032;2023-08-17T00:40:23;8.10;;;6.63;;
79122;SDS011;68526;44.600;26.032;2023-08-17T00:40:39;8.70;;;6.97;;
79122;SDS011;68526;44.600;26.032;2023-08-17T00:40:55;9.70;;;7.57;;
79122;SDS011;68526;44.600;26.032;2023-08-17T00:41:10;9.45;;;7.70;;
79122;SDS011;68526;44.600;26.032;2023-08-17T00:41:27;8.43;;;7.53;;
79122;SDS011;68526;44.600;26.032;2023-08-17T00:41:45;9.25;;;7.20;;
79122;SDS011;68526;44.600;26.032;2023-08-17T00:42:00;10.27;;;7.25;;
79122;SDS011;68526;44.600;26.032;2023-08-17T00:42:16;8.63;;;7.15;;
79122;SDS011;68526;44.600;26.032;2023-08-17T00:42:35;8.32;;;7.25;;
79122;SDS011;68526;44.600;26.032;2023-08-17T00:42:51;8.52;;;7.63;;
79122;SDS011;68526;44.600;26.032;2023-08-17T00:43:06;7.72;;;6.93;;
79122;SDS011;68526;44.600;26.032;2023-08-17T00:43:23;7.53;;;6.82;;
79122;SDS011;68526;44.600;26.032;2023-08-17T00:43:39;8.50;;;7.70;;
79122;SDS011;68526;44.600;26.032;2023-08-17T00:43:55;8.98;;;7.72;;
79122;SDS011;68526;44.600;26.032;2023-08-17T00:44:11;8.73;;;7.43;;
79122;SDS011;68526;44.600;26.032;2023-08-17T00:44:27;9.13;;;8.07;;
79122;SDS011;68526;44.600;26.032;2023-08-17T00:44:43;8.40;;;7.53;;
79122;SDS011;68526;44.600;26.032;2023-08-17T00:44:59;8.13;;;7.03;;
79122;SDS011;68526;44.600;26.032;2023-08-17T00:45:14;8.95;;;7.72;;
79122;SDS011;68526;44.600;26.032;2023-08-17T00:45:30;9.38;;;7.75;;
79122;SDS011;68526;44.600;26.032;2023-08-17T00:45:47;9.43;;;7.40;;
79122;SDS011;68526;44.600;26.032;2023-08-17T00:46:03;9.25;;;7.25;;
79122;SDS011;68526;44.600;26.032;2023-08-17T00:46:20;8.68;;;6.78;;
79122;SDS011;68526;44.600;26.032;2023-08-17T00:46:38;8.65;;;7.22;;
79122;SDS011;68526;44.600;26.032;2023-08-17T00:46:54;10.30;;;8.02;;
79122;SDS011;68526;44.600;26.032;2023-08-17T00:47:10;9.70;;;8.00;;
79122;SDS011;68526;44.600;26.032;2023-08-17T00:47:27;8.17;;;7.20;;
79122;SDS011;68526;44.600;26.032;2023-08-17T00:47:43;7.78;;;6.50;;
79122;SDS011;68526;44.600;26.032;2023-08-17T00:47:59;7.95;;;6.70;;
79122;SDS011;68526;44.600;26.032;2023-08-17T00:48:16;11.48;;;8.13;;
79122;SDS011;68526;44.600;26.032;2023-08-17T00:48:32;11.13;;;8.23;;
79122;SDS011;68526;44.600;26.032;2023-08-17T00:48:48;8.55;;;7.60;;
79122;SDS011;68526;44.600;26.032;2023-08-17T00:49:05;8.65;;;7.57;;
79122;SDS011;68526;44.600;26.032;2023-08-17T00:49:22;8.35;;;7.30;;
79122;SDS011;68526;44.600;26.032;2023-08-17T00:49:38;8.40;;;7.50;;
79122;SDS011;68526;44.600;26.032;2023-08-17T00:49:54;8.73;;;7.68;;
79122;SDS011;68526;44.600;26.032;2023-08-17T00:50:11;10.32;;;7.68;;
79122;SDS011;68526;44.600;26.032;2023-08-17T00:50:28;10.73;;;7.93;;
79122;SDS011;68526;44.600;26.032;2023-08-17T00:50:44;9.85;;;8.57;;
79122;SDS011;68526;44.600;26.032;2023-08-17T00:51:04;9.63;;;8.18;;
79122;SDS011;68526;44.600;26.032;2023-08-17T00:51:21;9.68;;;8.10;;
79122;SDS011;68526;44.600;26.032;2023-08-17T00:51:38;10.02;;;8.07;;
79122;SDS011;68526;44.600;26.032;2023-08-17T00:51:55;8.30;;;7.47;;
79122;SDS011;68526;44.600;26.032;2023-08-17T00:52:11;9.30;;;7.18;;
79122;SDS011;68526;44.600;26.032;2023-08-17T00:52:28;9.80;;;8.05;;
79122;SDS011;68526;44.600;26.032;2023-08-17T00:52:44;9.05;;;8.15;;
79122;SDS011;68526;44.600;26.032;2023-08-17T00:53:00;8.88;;;7.65;;
79122;SDS011;68526;44.600;26.032;2023-08-17T00:53:16;9.23;;;7.68;;
79122;SDS011;68526;44.600;26.032;2023-08-17T00:53:32;8.55;;;7.45;;
79122;SDS011;68526;44.600;26.032;2023-08-17T00:53:48;8.15;;;7.35;;
79122;SDS011;68526;44.600;26.032;2023-08-17T00:54:06;8.38;;;7.47;;
79122;SDS011;68526;44.600;26.032;2023-08-17T00:54:23;8.85;;;7.38;;
79122;SDS011;68526;44.600;26.032;2023-08-17T00:54:40;8.85;;;7.55;;
79122;SDS011;68526;44.600;26.032;2023-08-17T00:54:57;8.30;;;7.40;;
79122;SDS011;68526;44.600;26.032;2023-08-17T00:55:14;8.57;;;7.53;;
79122;SDS011;68526;44.600;26.032;2023-08-17T00:55:30;9.23;;;7.75;;
79122;SDS011;68526;44.600;26.032;2023-08-17T00:55:48;9.73;;;7.60;;
79122;SDS011;68526;44.600;26.032;2023-08-17T00:56:05;9.90;;;7.60;;
79122;SDS011;68526;44.600;26.032;2023-08-17T00:56:22;8.55;;;7.65;;
79122;SDS011;68526;44.600;26.032;2023-08-17T00:56:39;8.52;;;7.53;;
79122;SDS011;68526;44.600;26.032;2023-08-17T00:56:57;8.50;;;7.10;;
79122;SDS011;68526;44.600;26.032;2023-08-17T00:57:14;9.25;;;7.65;;
79122;SDS011;68526;44.600;26.032;2023-08-17T00:57:30;9.20;;;8.03;;
79122;SDS011;68526;44.600;26.032;2023-08-17T00:57:47;9.45;;;7.68;;
79122;SDS011;68526;44.600;26.032;2023-08-17T00:58:03;9.45;;;7.50;;
79122;SDS011;68526;44.600;26.032;2023-08-17T00:58:20;9.90;;;7.67;;
79122;SDS011;68526;44.600;26.032;2023-08-17T00:58:37;9.93;;;7.82;;
79122;SDS011;68526;44.600;26.032;2023-08-17T00:58:53;8.50;;;7.60;;
79122;SDS011;68526;44.600;26.032;2023-08-17T00:59:10;8.88;;;7.70;;
79122;SDS011;68526;44.600;26.032;2023-08-17T00:59:26;8.60;;;7.70;;
79122;SDS011;68526;44.600;26.032;2023-08-17T00:59:42;8.75;;;7.70;;
79122;SDS011;68526;44.600;26.032;2023-08-17T00:59:59;9.18;;;7.47;;
79122;SDS011;68526;44.600;26.032;2023-08-17T01:00:15;9.07;;;7.55;;
79122;SDS011;68526;44.600;26.032;2023-08-17T01:00:32;9.43;;;8.10;;
79122;SDS011;68526;44.600;26.032;2023-08-17T01:00:48;9.23;;;7.93;;
79122;SDS011;68526;44.600;26.032;2023-08-17T01:01:04;10.82;;;8.25;;
79122;SDS011;68526;44.600;26.032;2023-08-17T01:01:20;10.20;;;7.85;;
79122;SDS011;68526;44.600;26.032;2023-08-17T01:01:36;9.38;;;7.70;;
79122;SDS011;68526;44.600;26.032;2023-08-17T01:01:52;9.30;;;7.73;;
79122;SDS011;68526;44.600;26.032;2023-08-17T01:02:08;8.50;;;7.60;;
79122;SDS011;68526;44.600;26.032;2023-08-17T01:02:24;9.70;;;8.50;;
79122;SDS011;68526;44.600;26.032;2023-08-17T01:02:41;10.57;;;8.57;;
79122;SDS011;68526;44.600;26.032;2023-08-17T01:02:57;9.65;;;8.20;;
79122;SDS011;68526;44.600;26.032;2023-08-17T01:03:13;8.88;;;7.95;;
79122;SDS011;68526;44.600;26.032;2023-08-17T01:03:30;9.32;;;7.70;;
79122;SDS011;68526;44.600;26.032;2023-08-17T01:03:47;11.57;;;8.63;;
79122;SDS011;68526;44.600;26.032;2023-08-17T01:04:03;11.20;;;8.80;;
79122;SDS011;68526;44.600;26.032;2023-08-17T01:04:20;8.70;;;7.78;;
79122;SDS011;68526;44.600;26.032;2023-08-17T01:04:36;8.88;;;7.97;;
79122;SDS011;68526;44.600;26.032;2023-08-17T01:04:52;9.47;;;8.50;;
79122;SDS011;68526;44.600;26.032;2023-08-17T01:05:08;9.32;;;8.32;;
79122;SDS011;68526;44.600;26.032;2023-08-17T01:05:24;10.15;;;8.30;;
79122;SDS011;68526;44.600;26.032;2023-08-17T01:05:40;9.65;;;7.95;;
79122;SDS011;68526;44.600;26.032;2023-08-17T01:05:56;8.93;;;7.80;;
79122;SDS011;68526;44.600;26.032;2023-08-17T01:06:12;9.23;;;8.32;;
79122;SDS011;68526;44.600;26.032;2023-08-17T01:06:29;9.00;;;8.10;;
79122;SDS011;68526;44.600;26.032;2023-08-17T01:06:45;8.65;;;7.80;;
79122;SDS011;68526;44.600;26.032;2023-08-17T01:07:01;8.60;;;7.65;;
79122;SDS011;68526;44.600;26.032;2023-08-17T01:07:17;9.15;;;7.90;;
79122;SDS011;68526;44.600;26.032;2023-08-17T01:07:33;9.30;;;8.20;;
79122;SDS011;68526;44.600;26.032;2023-08-17T01:07:49;8.85;;;7.57;;
79122;SDS011;68526;44.600;26.032;2023-08-17T01:08:05;8.57;;;7.50;;
79122;SDS011;68526;44.600;26.032;2023-08-17T01:08:20;10.05;;;7.75;;
79122;SDS011;68526;44.600;26.032;2023-08-17T01:08:37;10.73;;;8.30;;
79122;SDS011;68526;44.600;26.032;2023-08-17T01:08:54;10.23;;;8.23;;
79122;SDS011;68526;44.600;26.032;2023-08-17T01:09:10;9.98;;;7.90;;
79122;SDS011;68526;44.600;26.032;2023-08-17T01:09:26;10.07;;;7.65;;
79122;SDS011;68526;44.600;26.032;2023-08-17T01:09:42;10.48;;;8.30;;
79122;SDS011;68526;44.600;26.032;2023-08-17T01:09:58;10.45;;;9.35;;
79122;SDS011;68526;44.600;26.032;2023-08-17T01:10:14;10.20;;;9.07;;
79122;SDS011;68526;44.600;26.032;2023-08-17T01:10:34;9.10;;;8.13;;
79122;SDS011;68526;44.600;26.032;2023-08-17T01:10:57;10.80;;;8.00;;
79122;SDS011;68526;44.600;26.032;2023-08-17T01:11:20;11.70;;;8.60;;
79122;SDS011;68526;44.600;26.032;2023-08-17T01:11:44;9.63;;;8.07;;
79122;SDS011;68526;44.600;26.032;2023-08-17T01:12:11;9.95;;;8.70;;
79122;SDS011;68526;44.600;26.032;2023-08-17T01:12:37;9.55;;;8.13;;
79122;SDS011;68526;44.600;26.032;2023-08-17T01:13:00;9.05;;;7.80;;
79122;SDS011;68526;44.600;26.032;2023-08-17T01:13:23;9.48;;;8.48;;
79122;SDS011;68526;44.600;26.032;2023-08-17T01:13:47;10.10;;;8.35;;
79122;SDS011;68526;44.600;26.032;2023-08-17T01:14:12;9.60;;;8.60;;
79122;SDS011;68526;44.600;26.032;2023-08-17T01:14:37;8.52;;;7.45;;
79122;SDS011;68526;44.600;26.032;2023-08-17T01:15:02;8.63;;;6.97;;
79122;SDS011;68526;44.600;26.032;2023-08-17T01:15:24;9.82;;;8.57;;
79122;SDS011;68526;44.600;26.032;2023-08-17T01:15:46;11.25;;;8.55;;
79122;SDS011;68526;44.600;26.032;2023-08-17T01:16:05;9.95;;;7.93;;
79122;SDS011;68526;44.600;26.032;2023-08-17T01:16:26;8.65;;;7.75;;
79122;SDS011;68526;44.600;26.032;2023-08-17T01:16:47;9.68;;;8.00;;
79122;SDS011;68526;44.600;26.032;2023-08-17T01:17:10;9.23;;;7.90;;
79122;SDS011;68526;44.600;26.032;2023-08-17T01:17:31;8.88;;;7.90;;
79122;SDS011;68526;44.600;26.032;2023-08-17T01:17:54;9.00;;;8.10;;
79122;SDS011;68526;44.600;26.032;2023-08-17T01:18:16;9.13;;;8.23;;
79122;SDS011;68526;44.600;26.032;2023-08-17T01:18:37;10.10;;;7.63;;
79122;SDS011;68526;44.600;26.032;2023-08-17T01:18:56;10.63;;;8.20;;
79122;SDS011;68526;44.600;26.032;2023-08-17T01:19:14;9.40;;;8.05;;
79122;SDS011;68526;44.600;26.032;2023-08-17T01:19:43;10.85;;;8.77;;
79122;SDS011;68526;44.600;26.032;2023-08-17T01:20:00;8.95;;;7.97;;
79122;SDS011;68526;44.600;26.032;2023-08-17T01:20:19;8.48;;;7.57;;
79122;SDS011;68526;44.600;26.032;2023-08-17T01:20:38;8.80;;;7.80;;
79122;SDS011;68526;44.600;26.032;2023-08-17T01:20:55;9.25;;;8.10;;
79122;SDS011;68526;44.600;26.032;2023-08-17T01:21:11;8.73;;;7.82;;
79122;SDS011;68526;44.600;26.032;2023-08-17T01:21:35;9.80;;;7.75;;
79122;SDS011;68526;44.600;26.032;2023-08-17T01:21:57;9.45;;;7.70;;
79122;SDS011;68526;44.600;26.032;2023-08-17T01:22:19;9.00;;;8.10;;
79122;SDS011;68526;44.600;26.032;2023-08-17T01:22:36;10.23;;;8.60;;
79122;SDS011;68526;44.600;26.032;2023-08-17T01:22:55;10.85;;;8.82;;
79122;SDS011;68526;44.600;26.032;2023-08-17T01:23:19;11.18;;;8.48;;
79122;SDS011;68526;44.600;26.032;2023-08-17T01:23:36;11.50;;;8.48;;
79122;SDS011;68526;44.600;26.032;2023-08-17T01:23:51;9.97;;;8.13;;
79122;SDS011;68526;44.600;26.032;2023-08-17T01:24:08;8.85;;;7.95;;
79122;SDS011;68526;44.600;26.032;2023-08-17T01:24:26;8.57;;;7.68;;
79122;SDS011;68526;44.600;26.032;2023-08-17T01:24:41;9.73;;;7.47;;
79122;SDS011;68526;44.600;26.032;2023-08-17T01:24:57;10.93;;;8.02;;
79122;SDS011;68526;44.600;26.032;2023-08-17T01:25:13;9.82;;;8.13;;
79122;SDS011;68526;44.600;26.032;2023-08-17T01:25:29;9.95;;;8.45;;
79122;SDS011;68526;44.600;26.032;2023-08-17T01:25:45;10.63;;;8.43;;
79122;SDS011;68526;44.600;26.032;2023-08-17T01:26:01;10.13;;;8.15;;
79122;SDS011;68526;44.600;26.032;2023-08-17T01:26:17;9.02;;;8.00;;
79122;SDS011;68526;44.600;26.032;2023-08-17T01:26:33;9.47;;;8.47;;
79122;SDS011;68526;44.600;26.032;2023-08-17T01:26:49;9.43;;;8.45;;
79122;SDS011;68526;44.600;26.032;2023-08-17T01:27:05;9.45;;;8.45;;
79122;SDS011;68526;44.600;26.032;2023-08-17T01:27:20;10.02;;;8.98;;
79122;SDS011;68526;44.600;26.032;2023-08-17T01:27:38;10.63;;;8.77;;
79122;SDS011;68526;44.600;26.032;2023-08-17T01:27:55;9.32;;;8.02;;
79122;SDS011;68526;44.600;26.032;2023-08-17T01:28:14;10.02;;;8.50;;
79122;SDS011;68526;44.600;26.032;2023-08-17T01:28:30;9.68;;;8.55;;
79122;SDS011;68526;44.600;26.032;2023-08-17T01:28:46;10.25;;;8.30;;
79122;SDS011;68526;44.600;26.032;2023-08-17T01:29:02;9.82;;;8.43;;
79122;SDS011;68526;44.600;26.032;2023-08-17T01:29:19;9.23;;;8.32;;
79122;SDS011;68526;44.600;26.032;2023-08-17T01:29:36;9.13;;;7.85;;
79122;SDS011;68526;44.600;26.032;2023-08-17T01:29:52;9.15;;;7.80;;
79122;SDS011;68526;44.600;26.032;2023-08-17T01:30:08;9.32;;;8.30;;
79122;SDS011;68526;44.600;26.032;2023-08-17T01:30:26;9.02;;;8.13;;
79122;SDS011;68526;44.600;26.032;2023-08-17T01:30:43;9.55;;;8.55;;
79122;SDS011;68526;44.600;26.032;2023-08-17T01:31:05;10.43;;;8.40;;
79122;SDS011;68526;44.600;26.032;2023-08-17T01:31:28;10.50;;;8.32;;
79122;SDS011;68526;44.600;26.032;2023-08-17T01:31:52;9.80;;;8.77;;
79122;SDS011;68526;44.600;26.032;2023-08-17T01:32:16;9.82;;;8.70;;
79122;SDS011;68526;44.600;26.032;2023-08-17T01:32:39;9.25;;;8.35;;
79122;SDS011;68526;44.600;26.032;2023-08-17T01:33:01;10.05;;;8.35;;
79122;SDS011;68526;44.600;26.032;2023-08-17T01:33:24;9.07;;;7.85;;
79122;SDS011;68526;44.600;26.032;2023-08-17T01:33:44;8.47;;;7.60;;
79122;SDS011;68526;44.600;26.032;2023-08-17T01:34:08;9.18;;;8.05;;
79122;SDS011;68526;44.600;26.032;2023-08-17T01:34:28;9.68;;;8.57;;
79122;SDS011;68526;44.600;26.032;2023-08-17T01:34:48;9.52;;;8.55;;
79122;SDS011;68526;44.600;26.032;2023-08-17T01:35:11;10.55;;;8.23;;
79122;SDS011;68526;44.600;26.032;2023-08-17T01:35:37;8.93;;;7.90;;
79122;SDS011;68526;44.600;26.032;2023-08-17T01:36:00;8.52;;;7.72;;
79122;SDS011;68526;44.600;26.032;2023-08-17T01:36:22;8.80;;;7.85;;
79122;SDS011;68526;44.600;26.032;2023-08-17T01:36:42;9.27;;;8.27;;
79122;SDS011;68526;44.600;26.032;2023-08-17T01:37:02;9.98;;;8.80;;
79122;SDS011;68526;44.600;26.032;2023-08-17T01:37:23;10.32;;;9.18;;
79122;SDS011;68526;44.600;26.032;2023-08-17T01:37:43;10.02;;;8.57;;
79122;SDS011;68526;44.600;26.032;2023-08-17T01:38:00;9.40;;;8.13;;
79122;SDS011;68526;44.600;26.032;2023-08-17T01:38:22;9.63;;;8.25;;
79122;SDS011;68526;44.600;26.032;2023-08-17T01:38:39;9.15;;;8.10;;
79122;SDS011;68526;44.600;26.032;2023-08-17T01:38:56;10.60;;;8.07;;
79122;SDS011;68526;44.600;26.032;2023-08-17T01:39:12;10.27;;;8.27;;
79122;SDS011;68526;44.600;26.032;2023-08-17T01:39:32;8.52;;;7.72;;
79122;SDS011;68526;44.600;26.032;2023-08-17T01:39:52;8.88;;;8.00;;
79122;SDS011;68526;44.600;26.032;2023-08-17T01:40:12;9.90;;;7.90;;
79122;SDS011;68526;44.600;26.032;2023-08-17T01:40:29;10.40;;;8.35;;
79122;SDS011;68526;44.600;26.032;2023-08-17T01:40:48;10.88;;;8.90;;
79122;SDS011;68526;44.600;26.032;2023-08-17T01:41:05;10.38;;;9.00;;
79122;SDS011;68526;44.600;26.032;2023-08-17T01:41:23;10.93;;;9.02;;
79122;SDS011;68526;44.600;26.032;2023-08-17T01:41:41;11.80;;;8.98;;